Time;durP1;ratioP1;P1;durP2;ratioP2;P2;SDS_P1;SDS_P2;PMS_P1;PMS_P2;Temp;Humidity;BMP_temperature;BMP_pressure;BME280_temperature;BME280_humidity;BME280_pressure;Samples;Min_cycle;Max_cycle;Signal;HPM_P1;HPM_P2
2022/01/29 00:00:08;;;;;;;6.85;3.47;;;4.40;83.20;;;;;;5025853;28;20052;-69
2022/01/29 00:02:53;;;;;;;7.22;2.50;;;4.40;83.20;;;;;;2699280;28;10002885;-71
2022/01/29 00:05:20;;;;;;;9.68;4.20;;;4.40;83.40;;;;;;3285640;28;10001129;-70
2022/01/29 00:07:47;;;;;;;12.90;4.05;;;4.40;83.40;;;;;;5024496;28;20116;-71
2022/01/29 00:10:15;;;;;;;8.98;3.80;;;4.40;83.60;;;;;;5024812;28;20570;-71
2022/01/29 00:12:42;;;;;;;9.50;4.35;;;4.50;83.50;;;;;;5023288;28;20049;-71
2022/01/29 00:15:11;;;;;;;10.52;4.07;;;4.50;83.40;;;;;;5027369;28;20052;-70
2022/01/29 00:17:40;;;;;;;11.23;4.40;;;4.50;83.50;;;;;;5026676;28;20057;-71
2022/01/29 00:20:13;;;;;;;10.57;4.72;;;4.60;83.60;;;;;;5024313;28;20049;-70
2022/01/29 00:22:43;;;;;;;9.95;4.38;;;4.60;83.50;;;;;;5023616;28;20049;-70
2022/01/29 00:25:10;;;;;;;8.60;4.20;;;4.60;83.70;;;;;;5020230;28;20045;-71
2022/01/29 00:27:39;;;;;;;9.90;4.13;;;4.60;83.60;;;;;;5016625;28;20080;-70
2022/01/29 00:30:09;;;;;;;11.43;5.13;;;4.60;83.50;;;;;;5024001;28;20189;-71
2022/01/29 00:32:38;;;;;;;8.07;4.03;;;4.60;83.70;;;;;;5040854;28;20111;-71
2022/01/29 00:35:06;;;;;;;9.98;4.75;;;4.70;83.70;;;;;;5043528;28;20044;-70
2022/01/29 00:37:33;;;;;;;7.75;4.13;;;4.60;83.80;;;;;;5041804;28;20427;-71
2022/01/29 00:40:01;;;;;;;10.10;4.88;;;4.70;83.70;;;;;;5046227;28;20053;-71
2022/01/29 00:42:30;;;;;;;9.90;4.60;;;4.70;83.90;;;;;;5048172;28;20627;-71
2022/01/29 00:44:57;;;;;;;11.25;5.03;;;4.70;83.70;;;;;;5052943;28;20048;-71
2022/01/29 00:47:24;;;;;;;15.98;5.70;;;4.70;83.70;;;;;;5049028;28;20071;-71
2022/01/29 00:49:52;;;;;;;12.70;5.05;;;4.70;83.70;;;;;;5044955;28;20091;-71
2022/01/29 00:52:19;;;;;;;9.02;4.30;;;4.70;83.60;;;;;;5046707;28;20048;-71
2022/01/29 00:54:46;;;;;;;10.82;5.13;;;4.70;83.80;;;;;;5047755;28;20083;-71
2022/01/29 00:57:13;;;;;;;16.20;6.28;;;4.70;83.80;;;;;;5049206;28;20040;-72
2022/01/29 00:59:40;;;;;;;11.93;4.93;;;4.70;83.70;;;;;;5048867;28;20052;-70
2022/01/29 01:02:09;;;;;;;14.15;5.32;;;4.70;83.70;;;;;;5043417;28;20533;-71
2022/01/29 01:04:38;;;;;;;10.80;4.75;;;4.80;83.70;;;;;;5042346;28;20442;-71
2022/01/29 01:07:08;;;;;;;10.13;5.25;;;4.70;83.80;;;;;;5041775;28;20048;-71
2022/01/29 01:09:36;;;;;;;8.87;5.33;;;4.80;83.80;;;;;;5045662;28;20057;-69
2022/01/29 01:12:04;;;;;;;9.20;5.18;;;4.80;83.80;;;;;;5028515;28;20473;-72
2022/01/29 01:14:32;;;;;;;17.48;5.15;;;4.80;83.70;;;;;;5044379;28;20052;-71
2022/01/29 01:16:59;;;;;;;12.18;5.18;;;4.90;83.60;;;;;;5040659;28;20044;-71
2022/01/29 01:19:26;;;;;;;11.43;5.13;;;4.90;83.60;;;;;;5044993;28;20183;-70
2022/01/29 01:21:54;;;;;;;14.82;5.80;;;4.90;83.80;;;;;;5043746;28;20071;-72
2022/01/29 01:24:22;;;;;;;10.77;5.43;;;4.80;83.70;;;;;;5044697;28;20062;-71
2022/01/29 01:26:50;;;;;;;10.85;4.45;;;4.90;83.70;;;;;;5041877;28;20469;-71
2022/01/29 01:29:17;;;;;;;11.98;5.18;;;4.90;83.70;;;;;;5048695;28;20052;-70
2022/01/29 01:31:45;;;;;;;11.52;5.38;;;4.90;83.70;;;;;;5044872;28;20092;-70
2022/01/29 01:34:12;;;;;;;10.63;5.70;;;4.90;83.70;;;;;;5030398;28;20473;-71
2022/01/29 01:36:45;;;;;;;12.52;5.13;;;4.90;83.70;;;;;;5028391;28;20053;-72
2022/01/29 01:39:16;;;;;;;12.48;5.63;;;4.90;83.70;;;;;;5020168;28;20904;-71
2022/01/29 01:41:53;;;;;;;14.23;4.57;;;4.90;83.80;;;;;;5021610;28;20057;-71
2022/01/29 01:44:20;;;;;;;10.20;4.50;;;4.90;83.70;;;;;;5026653;28;20053;-71
2022/01/29 01:46:47;;;;;;;11.15;5.20;;;5.00;83.70;;;;;;5026842;28;20053;-70
2022/01/29 01:49:15;;;;;;;12.45;5.05;;;4.90;83.70;;;;;;5027968;28;20063;-70
2022/01/29 01:51:43;;;;;;;12.80;4.88;;;5.00;83.70;;;;;;5031806;28;20060;-71
2022/01/29 01:54:10;;;;;;;13.48;4.93;;;5.00;83.70;;;;;;5031626;28;20056;-71
2022/01/29 01:56:37;;;;;;;14.15;4.90;;;4.90;83.70;;;;;;5022615;28;20052;-70
2022/01/29 01:59:05;;;;;;;13.73;5.05;;;5.00;83.70;;;;;;5027926;28;20415;-70
2022/01/29 02:01:39;;;;;;;8.24;3.31;;;5.00;83.70;;;;;;2532458;28;10257162;-70
2022/01/29 02:04:06;;;;;;;11.88;4.57;;;5.00;83.70;;;;;;2943198;28;10001064;-70
2022/01/29 02:06:34;;;;;;;9.48;4.13;;;5.00;83.70;;;;;;5027346;28;20423;-71
2022/01/29 02:09:01;;;;;;;13.65;4.82;;;5.00;83.60;;;;;;5028742;28;20053;-71
2022/01/29 02:11:30;;;;;;;13.18;4.93;;;5.10;83.60;;;;;;5024468;28;20094;-71
2022/01/29 02:13:59;;;;;;;11.40;4.50;;;5.10;83.70;;;;;;5025480;28;20045;-71
2022/01/29 02:16:28;;;;;;;11.63;4.78;;;5.10;83.70;;;;;;5029219;28;20048;-71
2022/01/29 02:18:55;;;;;;;12.98;5.57;;;5.00;83.70;;;;;;5031470;28;20573;-71
2022/01/29 02:21:22;;;;;;;10.63;4.43;;;5.10;83.70;;;;;;5031550;28;20057;-72
2022/01/29 02:23:50;;;;;;;10.93;4.13;;;5.10;83.60;;;;;;5029053;28;20056;-70
2022/01/29 02:26:17;;;;;;;11.38;4.43;;;5.10;83.60;;;;;;5028144;28;20049;-71
2022/01/29 02:28:44;;;;;;;12.65;4.07;;;5.10;83.70;;;;;;5030853;28;20079;-71
2022/01/29 02:31:11;;;;;;;8.07;3.72;;;5.10;83.60;;;;;;5036855;28;20505;-70
2022/01/29 02:33:40;;;;;;;11.05;4.90;;;5.10;83.70;;;;;;5050470;28;20048;-71
2022/01/29 02:36:07;;;;;;;10.20;5.15;;;5.10;83.60;;;;;;5051223;28;20056;-70
2022/01/29 02:38:35;;;;;;;11.65;4.45;;;5.00;83.70;;;;;;5051849;28;20059;-71
2022/01/29 02:41:06;;;;;;;8.82;3.95;;;5.10;83.70;;;;;;5045157;28;20078;-69
2022/01/29 02:43:39;;;;;;;12.13;4.45;;;5.10;83.70;;;;;;5046301;28;20056;-71
2022/01/29 02:46:18;;;;;;;11.77;4.70;;;5.10;83.70;;;;;;5051301;28;20139;-71
2022/01/29 02:48:46;;;;;;;9.98;4.53;;;5.10;83.80;;;;;;5052563;28;20059;-72
2022/01/29 02:51:13;;;;;;;10.02;4.70;;;5.10;83.80;;;;;;5052960;28;20052;-72
2022/01/29 02:53:40;;;;;;;10.82;4.80;;;5.10;83.90;;;;;;5051062;28;21484;-71
2022/01/29 02:56:09;;;;;;;8.32;3.90;;;5.10;83.90;;;;;;5051454;28;20728;-70
2022/01/29 02:58:36;;;;;;;9.43;3.83;;;5.10;83.70;;;;;;5050954;28;20055;-73
2022/01/29 03:01:03;;;;;;;10.15;4.65;;;5.10;83.80;;;;;;5049821;28;20051;-72
2022/01/29 03:03:30;;;;;;;9.07;4.18;;;5.10;83.70;;;;;;5049607;28;20051;-72
2022/01/29 03:05:57;;;;;;;11.65;3.90;;;5.10;83.70;;;;;;5051379;28;20059;-71
2022/01/29 03:08:24;;;;;;;11.18;4.40;;;5.10;83.60;;;;;;5051403;28;20566;-73
2022/01/29 03:10:51;;;;;;;10.43;4.47;;;5.20;83.60;;;;;;5027844;28;21925;-70
2022/01/29 03:13:19;;;;;;;10.30;4.20;;;5.20;83.50;;;;;;5037398;28;20048;-70
2022/01/29 03:15:46;;;;;;;9.25;4.20;;;5.20;83.60;;;;;;5046340;28;20094;-71
2022/01/29 03:18:13;;;;;;;11.75;5.32;;;5.10;83.60;;;;;;5045250;28;20052;-71
2022/01/29 03:20:40;;;;;;;7.57;3.75;;;5.10;83.60;;;;;;5053912;28;20041;-71
2022/01/29 03:23:07;;;;;;;10.35;4.68;;;5.10;83.60;;;;;;5056579;28;20049;-72
2022/01/29 03:25:34;;;;;;;10.10;3.88;;;5.10;83.70;;;;;;5049723;28;20044;-70
2022/01/29 03:28:01;;;;;;;9.20;4.00;;;5.10;83.70;;;;;;5050416;28;20059;-71
2022/01/29 03:30:29;;;;;;;9.60;4.28;;;5.10;83.60;;;;;;5054857;28;20125;-71
2022/01/29 03:32:56;;;;;;;11.77;4.60;;;5.20;83.40;;;;;;5048498;28;20063;-71
2022/01/29 03:35:23;;;;;;;10.00;4.10;;;5.20;83.40;;;;;;5045387;28;20068;-71
2022/01/29 03:37:50;;;;;;;8.85;3.80;;;5.20;83.40;;;;;;5046612;28;20134;-71
2022/01/29 03:40:17;;;;;;;6.78;3.45;;;5.10;83.40;;;;;;5047335;28;20056;-71
2022/01/29 03:42:48;;;;;;;11.05;4.28;;;5.20;83.50;;;;;;5046767;28;20194;-71
2022/01/29 03:45:19;;;;;;;8.68;3.47;;;5.20;83.50;;;;;;5049055;28;20198;-70
2022/01/29 03:47:47;;;;;;;9.40;4.22;;;5.20;83.50;;;;;;5050067;28;20052;-71
2022/01/29 03:50:14;;;;;;;9.10;4.13;;;5.20;83.50;;;;;;5046142;28;20055;-71
2022/01/29 03:52:41;;;;;;;10.20;3.85;;;5.20;83.40;;;;;;5052178;28;22415;-71
2022/01/29 03:55:08;;;;;;;10.77;3.63;;;5.20;83.40;;;;;;5049226;28;20053;-71
2022/01/29 03:57:35;;;;;;;10.18;3.47;;;5.20;83.40;;;;;;5047445;28;20536;-70
2022/01/29 04:00:04;;;;;;;8.95;3.53;;;5.20;83.30;;;;;;5051455;28;20395;-69
2022/01/29 04:02:44;;;;;;;8.21;2.64;;;5.20;83.40;;;;;;3055741;28;10002815;-71
2022/01/29 04:05:12;;;;;;;10.80;4.05;;;5.20;83.50;;;;;;2607266;28;10002338;-71
2022/01/29 04:07:40;;;;;;;8.85;3.53;;;5.20;83.40;;;;;;5025331;28;20053;-69
2022/01/29 04:10:08;;;;;;;8.32;3.97;;;5.20;83.40;;;;;;5035336;28;20053;-70
2022/01/29 04:12:40;;;;;;;10.65;3.42;;;5.20;83.30;;;;;;5049309;28;20057;-69
2022/01/29 04:15:08;;;;;;;9.05;3.85;;;5.20;83.40;;;;;;5050462;28;20049;-72
2022/01/29 04:17:35;;;;;;;8.20;4.30;;;5.20;83.50;;;;;;5047234;28;20040;-70
2022/01/29 04:20:03;;;;;;;10.23;4.05;;;5.20;83.50;;;;;;5047282;28;20056;-71
2022/01/29 04:22:31;;;;;;;12.07;3.90;;;5.20;83.40;;;;;;5044974;28;20665;-70
2022/01/29 04:24:59;;;;;;;8.63;3.58;;;5.20;83.50;;;;;;5045749;28;20051;-70
2022/01/29 04:27:34;;;;;;;10.00;4.35;;;5.20;83.50;;;;;;5047459;28;20052;-70
2022/01/29 04:30:03;;;;;;;9.93;4.15;;;5.20;83.50;;;;;;5047602;28;20167;-71
2022/01/29 04:32:54;;;;;;;9.43;4.10;;;5.20;83.60;;;;;;5045926;28;20084;-71
2022/01/29 04:35:17;;;;;;;7.85;4.72;;;5.20;83.60;;;;;;5041266;28;20297;-69
2022/01/29 04:37:45;;;;;;;7.97;3.53;;;5.20;83.60;;;;;;5037844;28;20079;-71
2022/01/29 04:40:13;;;;;;;9.23;3.85;;;5.20;83.70;;;;;;5050405;28;20044;-71
2022/01/29 04:42:40;;;;;;;9.30;3.97;;;5.20;83.80;;;;;;5048330;28;20055;-70
2022/01/29 04:45:08;;;;;;;9.05;3.95;;;5.20;83.70;;;;;;5051100;28;20044;-71
2022/01/29 04:47:34;;;;;;;9.05;4.03;;;5.20;83.80;;;;;;5050432;28;20135;-72
2022/01/29 04:50:01;;;;;;;10.80;4.60;;;5.20;83.80;;;;;;5050744;28;20048;-71
2022/01/29 04:52:29;;;;;;;9.32;3.83;;;5.20;83.70;;;;;;5048245;28;20153;-71
2022/01/29 04:54:58;;;;;;;10.85;4.43;;;5.20;83.80;;;;;;5043163;28;20087;-69
2022/01/29 04:57:24;;;;;;;11.10;4.53;;;5.20;83.80;;;;;;5043335;28;20414;-70
2022/01/29 04:59:51;;;;;;;10.50;4.10;;;5.20;83.80;;;;;;5048190;28;20055;-72
2022/01/29 05:02:18;;;;;;;10.80;4.35;;;5.20;83.90;;;;;;5046832;28;20045;-70
2022/01/29 05:04:45;;;;;;;8.27;4.30;;;5.20;83.90;;;;;;5048176;28;20060;-71
2022/01/29 05:07:12;;;;;;;10.18;3.78;;;5.20;83.80;;;;;;5049598;28;20053;-70
2022/01/29 05:09:39;;;;;;;9.55;3.60;;;5.20;83.80;;;;;;5049497;28;20047;-71
2022/01/29 05:12:08;;;;;;;11.30;4.13;;;5.20;83.80;;;;;;5051311;28;20486;-72
2022/01/29 05:14:41;;;;;;;11.30;4.10;;;5.20;83.80;;;;;;5050803;28;22020;-71
2022/01/29 05:26:49;;;;;;;9.60;4.63;;;5.20;83.80;;;;;;5049502;28;20052;-73
2022/01/29 05:28:23;;;;;;;11.52;4.35;;;5.20;83.90;;;;;;5050054;28;20044;-72
2022/01/29 05:30:50;;;;;;;8.68;4.15;;;5.20;83.80;;;;;;5050690;28;20754;-72
2022/01/29 05:33:17;;;;;;;9.45;3.70;;;5.20;83.80;;;;;;5049986;28;20057;-72
2022/01/29 05:35:44;;;;;;;8.55;3.63;;;5.20;83.70;;;;;;5046349;28;20504;-72
2022/01/29 05:38:11;;;;;;;12.77;5.43;;;5.20;83.70;;;;;;5029323;28;20045;-71
2022/01/29 05:40:37;;;;;;;11.43;4.15;;;5.20;83.80;;;;;;5027295;28;20071;-70
2022/01/29 05:43:04;;;;;;;11.93;4.65;;;5.20;83.70;;;;;;5031836;28;20049;-71
2022/01/29 05:45:33;;;;;;;8.52;3.95;;;5.20;83.80;;;;;;5030659;28;20040;-70
2022/01/29 05:48:00;;;;;;;8.27;3.40;;;5.20;83.80;;;;;;5032603;28;20059;-72
2022/01/29 05:50:27;;;;;;;10.98;4.80;;;5.20;83.80;;;;;;5030271;28;20410;-71
2022/01/29 05:52:54;;;;;;;10.75;4.82;;;5.20;83.90;;;;;;5027041;28;20049;-72
2022/01/29 05:55:22;;;;;;;11.68;4.35;;;5.20;83.90;;;;;;5029917;28;20060;-71
2022/01/29 05:57:49;;;;;;;11.43;4.05;;;5.20;83.90;;;;;;5031223;28;20048;-70
2022/01/29 06:00:26;;;;;;;8.29;3.84;;;5.20;83.90;;;;;;3843117;28;10150616;-71
2022/01/29 06:03:03;;;;;;;9.40;4.90;;;5.20;84.00;;;;;;2086123;28;10002161;-71
2022/01/29 06:05:30;;;;;;;10.45;4.15;;;5.20;83.90;;;;;;5043716;28;20051;-69
2022/01/29 06:07:57;;;;;;;12.98;5.05;;;5.20;84.00;;;;;;5047804;28;20048;-71
2022/01/29 06:10:24;;;;;;;10.35;4.15;;;5.20;84.00;;;;;;5045292;28;20188;-70
2022/01/29 06:13:02;;;;;;;10.48;3.83;;;5.20;84.10;;;;;;5041960;28;20043;-71
2022/01/29 06:15:30;;;;;;;10.93;4.93;;;5.20;84.00;;;;;;5043651;28;20056;-71
2022/01/29 06:17:58;;;;;;;8.80;4.00;;;5.20;84.00;;;;;;5049902;28;20049;-71
2022/01/29 06:20:27;;;;;;;12.00;4.60;;;5.20;84.00;;;;;;5050700;28;21392;-71
2022/01/29 06:22:54;;;;;;;8.85;4.00;;;5.20;84.10;;;;;;5055407;28;20496;-71
2022/01/29 06:25:21;;;;;;;11.45;4.05;;;5.20;84.10;;;;;;5054023;28;20052;-70
2022/01/29 06:27:48;;;;;;;8.68;4.00;;;5.20;84.10;;;;;;5056491;28;20048;-70
2022/01/29 06:30:16;;;;;;;9.93;3.92;;;5.20;84.10;;;;;;5054399;28;20052;-70
2022/01/29 06:32:43;;;;;;;12.25;3.88;;;5.20;84.10;;;;;;5055529;28;20049;-70
2022/01/29 06:35:11;;;;;;;12.85;4.97;;;5.20;84.10;;;;;;5054603;28;20052;-70
2022/01/29 06:37:40;;;;;;;9.80;4.50;;;5.20;84.10;;;;;;5050840;28;20056;-70
2022/01/29 06:40:08;;;;;;;8.07;4.38;;;5.20;84.20;;;;;;5055521;28;20430;-72
2022/01/29 06:42:36;;;;;;;8.95;3.95;;;5.20;84.30;;;;;;5056523;28;20055;-71
2022/01/29 06:45:04;;;;;;;8.90;3.95;;;5.20;84.30;;;;;;5037090;28;20080;-70
2022/01/29 06:47:31;;;;;;;8.63;3.88;;;5.20;84.20;;;;;;5056469;28;20505;-70
2022/01/29 06:50:01;;;;;;;8.77;3.75;;;5.20;84.30;;;;;;5055696;28;20048;-71
2022/01/29 06:52:28;;;;;;;11.80;3.50;;;5.20;84.30;;;;;;5056206;28;20288;-70
2022/01/29 06:54:57;;;;;;;9.60;4.30;;;5.20;84.50;;;;;;5055058;28;20390;-71
2022/01/29 06:57:24;;;;;;;10.90;4.55;;;5.20;84.40;;;;;;5055492;28;20056;-70
2022/01/29 06:59:51;;;;;;;14.05;4.30;;;5.20;84.40;;;;;;5056282;28;20056;-71
2022/01/29 07:02:17;;;;;;;9.30;4.22;;;5.20;84.50;;;;;;5052671;28;20045;-71
2022/01/29 07:04:44;;;;;;;10.70;4.90;;;5.20;84.40;;;;;;5057150;28;20052;-71
2022/01/29 07:07:11;;;;;;;10.30;4.13;;;5.20;84.40;;;;;;5054874;28;20063;-71
2022/01/29 07:09:38;;;;;;;7.03;3.38;;;5.20;84.40;;;;;;5056162;28;20064;-71
2022/01/29 07:12:10;;;;;;;8.95;3.63;;;5.20;84.40;;;;;;5056725;28;21647;-72
2022/01/29 07:14:39;;;;;;;9.40;3.92;;;5.20;84.30;;;;;;5031981;28;20421;-71
2022/01/29 07:17:10;;;;;;;10.27;3.95;;;5.20;84.40;;;;;;5058450;28;20048;-70
2022/01/29 07:19:37;;;;;;;9.13;4.07;;;5.20;84.80;;;;;;5056545;28;20137;-70
2022/01/29 07:22:05;;;;;;;9.95;4.20;;;5.20;84.70;;;;;;5037834;28;20405;-70
2022/01/29 07:24:32;;;;;;;9.30;4.45;;;5.20;84.80;;;;;;5055857;28;20048;-70
2022/01/29 07:26:59;;;;;;;9.05;3.65;;;5.20;84.80;;;;;;5054920;28;20052;-70
2022/01/29 07:29:27;;;;;;;9.00;4.53;;;5.20;84.80;;;;;;5055939;28;20052;-72
2022/01/29 07:31:55;;;;;;;9.60;3.58;;;5.20;84.80;;;;;;5055620;28;20072;-70
2022/01/29 07:34:23;;;;;;;8.90;3.22;;;5.20;84.80;;;;;;5054388;28;20498;-70
2022/01/29 07:36:50;;;;;;;8.85;3.45;;;5.20;84.90;;;;;;5054280;28;20402;-71
2022/01/29 07:39:17;;;;;;;9.43;3.78;;;5.20;84.80;;;;;;5050694;28;20148;-70
2022/01/29 07:41:45;;;;;;;7.65;3.70;;;5.20;84.90;;;;;;5054889;28;20045;-70
2022/01/29 07:44:12;;;;;;;8.60;3.47;;;5.20;84.90;;;;;;5053656;28;20041;-71
2022/01/29 07:46:41;;;;;;;11.07;3.90;;;5.20;85.00;;;;;;5053364;28;20056;-71
2022/01/29 07:49:09;;;;;;;7.90;4.03;;;5.20;84.90;;;;;;5053759;28;20398;-70
2022/01/29 07:51:36;;;;;;;7.50;3.50;;;5.20;84.90;;;;;;5053762;28;20093;-71
2022/01/29 07:54:04;;;;;;;6.90;3.65;;;5.20;85.00;;;;;;5051415;28;20040;-71
2022/01/29 07:56:31;;;;;;;9.82;3.78;;;5.20;85.10;;;;;;5051797;28;20587;-71
2022/01/29 07:58:58;;;;;;;9.95;3.88;;;5.20;85.20;;;;;;5009620;28;20044;-70
2022/01/29 08:01:31;;;;;;;5.37;1.97;;;5.20;85.20;;;;;;3407869;28;10021625;-70
2022/01/29 08:04:00;;;;;;;6.43;3.15;;;5.20;85.20;;;;;;2081179;28;10002140;-71
2022/01/29 08:06:30;;;;;;;7.72;3.00;;;5.20;85.10;;;;;;5032567;28;20045;-72
2022/01/29 08:08:57;;;;;;;9.45;5.13;;;5.30;85.10;;;;;;5053961;28;20573;-70
2022/01/29 08:11:25;;;;;;;8.13;3.50;;;5.20;85.10;;;;;;5053488;28;20435;-71
2022/01/29 08:13:52;;;;;;;8.23;3.55;;;5.20;85.20;;;;;;5042701;28;20055;-71
2022/01/29 08:16:19;;;;;;;8.63;3.83;;;5.20;85.30;;;;;;5039852;28;20045;-70
2022/01/29 08:18:46;;;;;;;9.40;3.92;;;5.20;85.30;;;;;;5046819;28;20485;-71
2022/01/29 08:21:15;;;;;;;9.20;3.60;;;5.20;85.40;;;;;;5052854;28;20048;-70
2022/01/29 08:23:43;;;;;;;7.75;3.70;;;5.20;85.50;;;;;;5044361;28;20049;-73
2022/01/29 08:26:10;;;;;;;10.02;3.80;;;5.20;85.50;;;;;;5029620;28;20048;-71
2022/01/29 08:28:37;;;;;;;7.05;3.10;;;5.20;85.60;;;;;;5028218;28;20722;-70
2022/01/29 08:31:05;;;;;;;8.30;4.00;;;5.20;85.60;;;;;;5028745;28;20514;-71
2022/01/29 08:33:32;;;;;;;6.95;3.17;;;5.20;85.60;;;;;;5026698;28;20104;-72
2022/01/29 08:35:59;;;;;;;9.90;4.00;;;5.30;85.70;;;;;;5030526;28;20402;-69
2022/01/29 08:38:30;;;;;;;8.73;3.58;;;5.20;85.80;;;;;;5023752;28;20056;-70
2022/01/29 08:40:58;;;;;;;6.65;2.83;;;5.20;85.90;;;;;;5028137;28;20052;-72
2022/01/29 08:43:25;;;;;;;10.05;3.88;;;5.20;85.90;;;;;;5023954;28;20134;-72
2022/01/29 08:45:52;;;;;;;7.78;3.25;;;5.30;86.00;;;;;;5026618;28;20049;-70
2022/01/29 08:48:20;;;;;;;8.23;3.63;;;5.20;86.10;;;;;;5026956;28;20059;-71
2022/01/29 08:50:47;;;;;;;9.02;3.63;;;5.30;86.10;;;;;;5008886;28;20096;-70
2022/01/29 08:53:16;;;;;;;7.57;3.35;;;5.30;86.00;;;;;;5028248;28;20056;-70
2022/01/29 08:55:44;;;;;;;8.02;3.47;;;5.30;86.10;;;;;;5047012;28;20055;-71
2022/01/29 08:58:12;;;;;;;7.55;3.03;;;5.30;86.20;;;;;;5050092;28;20048;-70
2022/01/29 09:00:41;;;;;;;5.97;2.53;;;5.30;86.30;;;;;;5042768;28;20103;-69
2022/01/29 09:03:08;;;;;;;7.18;3.38;;;5.20;86.40;;;;;;5029181;28;20053;-69
2022/01/29 09:05:37;;;;;;;9.30;3.22;;;5.20;86.50;;;;;;5033388;28;20057;-69
2022/01/29 09:08:05;;;;;;;8.85;3.78;;;5.20;86.50;;;;;;5026721;28;20546;-69
2022/01/29 09:10:32;;;;;;;8.80;2.88;;;5.20;86.60;;;;;;5021711;28;20563;-69
2022/01/29 09:13:01;;;;;;;8.40;3.10;;;5.30;86.60;;;;;;5026495;28;20182;-68
2022/01/29 09:15:29;;;;;;;7.38;3.50;;;5.30;86.50;;;;;;5025930;28;20056;-68
2022/01/29 09:17:56;;;;;;;9.90;3.47;;;5.20;86.70;;;;;;5036860;28;20063;-70
2022/01/29 09:20:26;;;;;;;10.85;3.50;;;5.30;86.50;;;;;;5035733;28;20047;-68
2022/01/29 09:22:53;;;;;;;11.15;4.80;;;5.30;86.60;;;;;;5031129;28;20434;-69
2022/01/29 09:25:20;;;;;;;8.82;3.20;;;5.20;86.60;;;;;;5026292;28;20519;-68
2022/01/29 09:27:47;;;;;;;8.95;3.58;;;5.20;86.50;;;;;;5013399;28;20051;-69
2022/01/29 09:30:15;;;;;;;7.22;3.65;;;5.20;86.70;;;;;;5022393;28;20772;-68
2022/01/29 09:32:42;;;;;;;7.93;2.92;;;5.20;86.60;;;;;;5043806;28;21488;-70
2022/01/29 09:35:09;;;;;;;8.02;2.95;;;5.20;86.50;;;;;;5046977;28;20357;-68
2022/01/29 09:37:36;;;;;;;10.93;3.90;;;5.20;86.50;;;;;;5034960;28;20052;-69
2022/01/29 09:40:03;;;;;;;8.00;3.33;;;5.20;86.50;;;;;;5046938;28;20044;-70
2022/01/29 09:42:31;;;;;;;9.80;3.85;;;5.20;86.50;;;;;;5020576;28;20442;-68
2022/01/29 09:44:58;;;;;;;7.32;3.55;;;5.20;86.50;;;;;;5046382;28;20041;-69
2022/01/29 09:47:29;;;;;;;10.05;3.83;;;5.20;86.50;;;;;;5024534;28;20052;-68
2022/01/29 09:49:56;;;;;;;10.98;3.92;;;5.20;86.40;;;;;;5045017;28;20051;-69
2022/01/29 09:52:23;;;;;;;8.20;4.00;;;5.20;86.40;;;;;;5044818;28;20052;-69
2022/01/29 09:54:50;;;;;;;7.13;3.05;;;5.20;86.30;;;;;;5043132;28;20051;-70
2022/01/29 09:57:18;;;;;;;8.10;2.97;;;5.30;86.10;;;;;;5047475;28;20048;-69
2022/01/29 09:59:46;;;;;;;7.03;3.15;;;5.30;86.10;;;;;;5044911;28;20051;-69
2022/01/29 10:02:34;;;;;;;6.60;2.73;;;5.30;86.00;;;;;;2938820;28;10216803;-70
2022/01/29 10:05:01;;;;;;;5.68;2.50;;;5.30;85.90;;;;;;4000359;28;10002145;-69
2022/01/29 10:07:30;;;;;;;5.88;2.75;;;5.30;85.80;;;;;;5050534;28;20137;-71
2022/01/29 10:09:59;;;;;;;8.57;3.35;;;5.30;85.70;;;;;;5051074;28;20056;-70
2022/01/29 10:12:28;;;;;;;10.25;3.67;;;5.30;85.90;;;;;;5051718;28;20064;-69
2022/01/29 10:14:58;;;;;;;8.43;3.30;;;5.40;85.70;;;;;;5049510;28;20057;-70
2022/01/29 10:17:48;;;;;;;6.60;2.50;;;5.40;85.70;;;;;;5050177;28;20048;-69
2022/01/29 10:20:20;;;;;;;6.10;2.40;;;5.40;85.40;;;;;;5049524;28;20438;-69
2022/01/29 10:22:49;;;;;;;6.55;2.53;;;5.40;85.20;;;;;;5049889;28;20088;-70
2022/01/29 10:25:19;;;;;;;5.60;2.35;;;5.30;85.10;;;;;;5049532;28;20604;-70
2022/01/29 10:28:14;;;;;;;6.22;2.60;;;5.40;85.10;;;;;;5050973;28;20040;-70
2022/01/29 10:31:05;;;;;;;6.55;2.03;;;5.40;84.90;;;;;;4992294;28;20370;-69
2022/01/29 10:33:34;;;;;;;7.22;2.30;;;5.40;84.90;;;;;;5038165;28;20045;-70
2022/01/29 10:36:05;;;;;;;3.40;1.55;;;5.40;84.80;;;;;;5028380;28;20509;-70
2022/01/29 10:38:48;;;;;;;4.60;2.13;;;5.40;84.90;;;;;;5025174;28;20052;-70
2022/01/29 10:41:19;;;;;;;4.70;1.50;;;5.40;84.90;;;;;;5028227;28;20793;-70
2022/01/29 10:44:09;;;;;;;4.28;1.85;;;5.40;84.80;;;;;;5033776;28;20149;-69
2022/01/29 10:46:37;;;;;;;4.45;2.08;;;5.40;84.80;;;;;;5032037;28;20756;-68
2022/01/29 10:49:07;;;;;;;3.15;1.35;;;5.50;84.60;;;;;;5052992;28;20074;-67
2022/01/29 10:51:35;;;;;;;4.80;2.00;;;5.50;84.60;;;;;;5051836;28;20049;-70
2022/01/29 10:54:19;;;;;;;6.25;2.50;;;5.50;84.60;;;;;;5050687;28;20040;-69
2022/01/29 10:56:53;;;;;;;4.10;2.08;;;5.50;84.50;;;;;;5043347;28;20055;-70
2022/01/29 10:59:21;;;;;;;5.65;2.10;;;5.50;84.50;;;;;;5048598;28;20174;-69
2022/01/29 11:01:52;;;;;;;4.50;1.75;;;5.50;84.50;;;;;;5048075;28;20366;-70
2022/01/29 11:04:21;;;;;;;3.70;1.98;;;5.50;84.50;;;;;;5048412;28;20059;-69
2022/01/29 11:06:49;;;;;;;7.60;1.73;;;5.50;84.50;;;;;;5049588;28;20538;-68
2022/01/29 11:09:17;;;;;;;5.03;1.60;;;5.50;84.40;;;;;;5047489;28;20135;-70
2022/01/29 11:11:46;;;;;;;3.60;1.67;;;5.50;84.40;;;;;;5048267;28;20604;-68
2022/01/29 11:14:15;;;;;;;2.35;1.60;;;5.60;84.40;;;;;;5049648;28;20187;-70
2022/01/29 11:16:44;;;;;;;5.40;1.75;;;5.50;84.30;;;;;;5027490;28;20485;-69
2022/01/29 11:19:12;;;;;;;5.28;1.90;;;5.50;84.40;;;;;;5043343;28;20055;-69
2022/01/29 11:21:43;;;;;;;3.05;1.50;;;5.50;84.40;;;;;;5046908;28;20055;-69
2022/01/29 11:24:12;;;;;;;5.60;2.13;;;5.50;84.40;;;;;;5047887;28;20497;-70
2022/01/29 11:26:41;;;;;;;4.13;1.40;;;5.60;84.50;;;;;;5045870;28;20044;-70
2022/01/29 11:29:23;;;;;;;3.25;1.80;;;5.60;84.40;;;;;;5047640;28;20052;-70
2022/01/29 11:32:12;;;;;;;3.00;1.30;;;5.60;84.30;;;;;;5037542;28;20083;-70
2022/01/29 11:35:07;;;;;;;4.85;1.30;;;5.60;84.50;;;;;;5024655;28;20048;-70
2022/01/29 11:37:57;;;;;;;3.40;1.58;;;5.70;84.50;;;;;;5028644;28;20207;-69
2022/01/29 11:40:30;;;;;;;3.03;1.45;;;5.60;84.50;;;;;;5028938;28;20057;-70
2022/01/29 11:43:07;;;;;;;4.55;1.80;;;5.70;84.50;;;;;;5028928;28;20068;-69
2022/01/29 11:45:55;;;;;;;3.85;1.75;;;5.70;84.50;;;;;;5031177;28;20086;-70
2022/01/29 11:51:53;;;;;;;3.15;1.23;;;5.80;84.40;;;;;;5029707;28;20058;-69
2022/01/29 11:54:52;;;;;;;3.30;1.00;;;5.80;84.40;;;;;;5029034;28;20049;-70
2022/01/29 11:57:19;;;;;;;4.75;1.02;;;5.70;84.40;;;;;;5028206;28;20051;-69
2022/01/29 12:00:36;;;;;;;4.20;1.32;;;5.80;84.30;;;;;;4543582;28;10001439;-69
2022/01/29 12:03:03;;;;;;;2.50;1.30;;;5.80;84.30;;;;;;4152083;28;10001919;-70
2022/01/29 12:05:31;;;;;;;5.43;1.45;;;5.80;84.30;;;;;;5027549;28;20132;-69
2022/01/29 12:08:11;;;;;;;3.63;1.60;;;5.80;84.30;;;;;;5030254;28;20061;-68
2022/01/29 12:10:52;;;;;;;2.33;1.15;;;5.80;84.20;;;;;;5029254;28;20045;-70
2022/01/29 12:13:19;;;;;;;2.33;1.05;;;5.80;84.20;;;;;;5027400;28;20061;-70
2022/01/29 12:15:46;;;;;;;6.65;1.40;;;5.80;84.20;;;;;;5028491;28;20601;-70
2022/01/29 12:18:33;;;;;;;1.98;0.98;;;5.80;84.30;;;;;;5044494;28;20052;-70
2022/01/29 12:21:00;;;;;;;3.33;1.13;;;5.90;84.30;;;;;;5046831;28;20350;-70
2022/01/29 12:23:27;;;;;;;2.05;0.90;;;5.80;84.20;;;;;;5047834;28;20052;-69
2022/01/29 12:25:58;;;;;;;2.55;1.10;;;5.80;84.40;;;;;;5047787;28;20454;-71
2022/01/29 12:28:25;;;;;;;;;;;5.80;84.40;;;;;;5045236;28;20139;-69
2022/01/29 12:30:53;;;;;;;2.20;0.63;;;5.90;84.30;;;;;;5033951;28;20398;-71
2022/01/29 12:33:23;;;;;;;2.17;0.75;;;5.90;84.20;;;;;;5033457;28;20069;-69
2022/01/29 12:35:54;;;;;;;3.60;0.98;;;5.90;84.30;;;;;;5033112;28;20126;-70
2022/01/29 12:38:26;;;;;;;3.03;1.02;;;5.90;84.20;;;;;;5031290;28;20049;-69
2022/01/29 12:40:57;;;;;;;2.42;1.08;;;6.00;84.30;;;;;;5031318;28;20053;-67
2022/01/29 12:43:28;;;;;;;3.05;0.90;;;6.00;84.20;;;;;;5032056;28;20603;-68
2022/01/29 12:46:06;;;;;;;2.67;1.20;;;6.00;84.20;;;;;;5032176;28;20695;-71
2022/01/29 12:48:33;;;;;;;3.25;1.15;;;6.10;84.20;;;;;;5031196;28;20059;-70
2022/01/29 12:51:05;;;;;;;1.95;0.70;;;6.10;83.90;;;;;;5014480;28;20044;-69
2022/01/29 12:53:32;;;;;;;2.72;1.20;;;6.10;83.90;;;;;;5031552;28;20052;-70
2022/01/29 12:56:02;;;;;;;2.78;1.00;;;6.10;84.00;;;;;;5033099;28;20123;-70
2022/01/29 12:58:31;;;;;;;2.00;1.00;;;6.10;83.90;;;;;;5026589;28;20454;-70
2022/01/29 13:01:09;;;;;;;2.42;1.00;;;6.00;84.00;;;;;;5029466;28;20894;-71
2022/01/29 13:03:38;;;;;;;2.10;0.75;;;6.10;83.90;;;;;;5030972;28;20448;-69
2022/01/29 13:06:10;;;;;;;2.13;0.73;;;6.10;83.90;;;;;;5032604;28;20045;-69
2022/01/29 13:08:37;;;;;;;1.70;0.75;;;6.10;84.00;;;;;;5029849;28;20051;-69
2022/01/29 13:11:21;;;;;;;0.98;0.50;;;6.10;84.00;;;;;;5031344;28;20057;-70
2022/01/29 13:13:48;;;;;;;2.40;0.90;;;6.10;84.20;;;;;;5050664;28;20049;-70
2022/01/29 13:16:15;;;;;;;1.60;0.80;;;6.10;84.20;;;;;;5046342;28;20103;-72